Mahackala, Russia
Current Conditions -  °F | °C
As of 6:00 PM on Saturday 25 Oct 2014 (Local Time) from URML Reporting Station
Light Snow Light Snow  
Wind Chill: 18°   Ceiling: 1000
Heat Index: 30°   Visibility: 2mi
Dew Point: 28°   Wind: 18mph
Humidity: 93%   Direction: 350°N
Pressure: 30.42"   Gusts: 27mph
Location:  42.97°N, 47.49°E
Report Text: URML 251500Z 35008G12MPS 3200 -SN BR OVC010 M01/M02 Q1030 TEMPO1000 SHSN SCT002 BKN015CB RMK MT OBSC QFE772/1030
Loading
Personal Weather Stations






























Interactive Weather Map
Tropical Storm Tracking
New forecast layout! Learn more

10-Day Weather Forecast

Advertisements
Track Severe Weather on mobile